createdAt,value
2022-12-20T00:01:35.724Z,23.63
2022-12-20T00:04:08.118Z,24.67
2022-12-20T00:06:36.582Z,23.80
2022-12-20T00:09:07.113Z,23.05
2022-12-20T00:11:34.630Z,22.60
2022-12-20T00:14:02.089Z,22.80
2022-12-20T00:16:29.968Z,24.42
2022-12-20T00:19:00.216Z,23.27
2022-12-20T00:21:28.506Z,21.65
2022-12-20T00:23:56.463Z,22.88
2022-12-20T00:26:26.798Z,24.15
2022-12-20T00:28:54.252Z,24.27
2022-12-20T00:31:23.534Z,23.08
2022-12-20T00:33:53.349Z,22.50
2022-12-20T00:36:22.172Z,23.02
2022-12-20T00:38:51.459Z,23.38
2022-12-20T00:41:21.746Z,23.13
2022-12-20T00:43:49.957Z,22.92
2022-12-20T00:46:19.483Z,23.70
2022-12-20T00:48:47.517Z,24.48
2022-12-20T00:51:17.965Z,23.17
2022-12-20T00:53:46.581Z,22.00
2022-12-20T00:56:14.435Z,23.65
2022-12-20T00:58:43.574Z,22.92
2022-12-20T01:01:25.754Z,23.00
2022-12-20T01:03:54.246Z,23.58
2022-12-20T01:06:23.127Z,22.15
2022-12-20T01:08:50.451Z,22.45
2022-12-20T01:11:27.141Z,21.77
2022-12-20T01:13:56.793Z,22.40
2022-12-20T01:16:33.606Z,22.60
2022-12-20T01:19:01.649Z,23.70
2022-12-20T01:21:29.528Z,22.27
2022-12-20T01:23:57.359Z,22.65
2022-12-20T01:26:27.450Z,22.85
2022-12-20T01:28:57.730Z,23.35
2022-12-20T01:31:25.213Z,22.27
2022-12-20T01:33:53.017Z,21.70
2022-12-20T01:36:27.604Z,22.38
2022-12-20T01:39:04.076Z,22.30
2022-12-20T01:41:33.110Z,24.05
2022-12-20T01:44:03.036Z,23.20
2022-12-20T01:46:36.462Z,22.92
2022-12-20T01:49:25.472Z,24.42
2022-12-20T01:52:02.753Z,22.08
2022-12-20T01:54:34.428Z,22.80
2022-12-20T01:57:06.515Z,22.88
2022-12-20T01:59:39.029Z,23.25
2022-12-20T02:02:10.718Z,24.05
2022-12-20T02:07:08.025Z,21.70
2022-12-20T02:09:37.614Z,22.60
2022-12-20T02:12:15.623Z,23.98
2022-12-20T02:14:55.357Z,24.48
2022-12-20T02:17:38.109Z,24.05
2022-12-20T02:20:33.311Z,24.95
2022-12-20T02:23:22.062Z,23.85
2022-12-20T02:26:07.627Z,22.13
2022-12-20T02:28:34.888Z,23.52
2022-12-20T02:31:08.334Z,23.30
2022-12-20T02:33:35.715Z,22.90
2022-12-20T02:36:04.505Z,23.42
2022-12-20T02:38:34.410Z,22.80
2022-12-20T02:41:20.193Z,24.40
2022-12-20T02:44:13.005Z,22.08
2022-12-20T02:46:41.007Z,23.77
2022-12-20T02:49:17.184Z,22.75
2022-12-20T02:51:48.059Z,23.08
2022-12-20T02:54:16.520Z,22.88
2022-12-20T02:57:06.168Z,22.60
2022-12-20T02:59:57.150Z,23.13
2022-12-20T03:02:26.085Z,22.35
2022-12-20T03:04:54.366Z,22.70
2022-12-20T03:07:23.505Z,23.92
2022-12-20T03:09:51.255Z,23.48
2022-12-20T03:12:18.683Z,22.75
2022-12-20T03:14:45.997Z,23.10
2022-12-20T03:17:14.821Z,24.20
2022-12-20T03:19:42.554Z,23.23
2022-12-20T03:22:09.847Z,23.90
2022-12-20T03:24:37.180Z,23.48
2022-12-20T03:27:10.163Z,24.42
2022-12-20T03:29:38.287Z,24.85
2022-12-20T03:32:05.940Z,24.30
2022-12-20T03:34:33.232Z,23.33
2022-12-20T03:37:01.461Z,23.23
2022-12-20T03:39:28.882Z,24.63
2022-12-20T03:41:56.399Z,23.40
2022-12-20T03:44:25.146Z,22.67
2022-12-20T03:46:52.749Z,23.85
2022-12-20T03:49:21.221Z,23.55
2022-12-20T03:51:51.739Z,23.40
2022-12-20T03:54:19.367Z,23.05
2022-12-20T03:57:07.506Z,22.75
2022-12-20T03:59:35.726Z,23.40
2022-12-20T04:02:04.808Z,23.35
2022-12-20T04:04:32.263Z,24.25
2022-12-20T04:06:59.552Z,23.52
2022-12-20T04:09:27.436Z,23.13
2022-12-20T04:12:01.716Z,23.13
2022-12-20T04:14:30.225Z,23.90
2022-12-20T04:16:57.637Z,24.48
2022-12-20T04:19:24.932Z,22.73
2022-12-20T04:21:52.246Z,24.00
2022-12-20T04:24:20.746Z,23.75
2022-12-20T04:26:58.082Z,22.80
2022-12-20T04:29:25.411Z,23.92
2022-12-20T04:31:52.865Z,23.13
2022-12-20T04:34:22.294Z,22.80
2022-12-20T04:36:49.682Z,23.88
2022-12-20T04:39:26.012Z,24.88
2022-12-20T04:42:12.007Z,24.20
2022-12-20T04:44:39.522Z,23.33
2022-12-20T04:47:07.693Z,23.15
2022-12-20T04:49:34.988Z,22.88
2022-12-20T04:52:22.361Z,24.73
2022-12-20T04:54:50.140Z,22.17
2022-12-20T04:57:23.304Z,22.23
2022-12-20T04:59:51.007Z,23.85
2022-12-20T05:02:19.380Z,22.92
2022-12-20T05:04:51.516Z,23.17
2022-12-20T05:07:18.729Z,23.15
2022-12-20T05:09:51.675Z,23.95
2022-12-20T05:12:18.917Z,22.08
2022-12-20T05:14:46.436Z,22.90
2022-12-20T05:17:16.346Z,22.85
2022-12-20T05:19:44.060Z,23.73
2022-12-20T05:22:31.677Z,22.58
2022-12-20T05:25:30.000Z,23.00
2022-12-20T05:28:00.753Z,23.40
2022-12-20T05:30:32.162Z,27.17
2022-12-20T05:32:59.401Z,28.83
2022-12-20T05:35:27.104Z,25.55
2022-12-20T05:38:02.565Z,23.35
2022-12-20T05:40:29.953Z,22.88
2022-12-20T05:42:58.128Z,24.27
2022-12-20T05:45:34.591Z,23.50
2022-12-20T05:48:06.863Z,22.80
2022-12-20T05:50:36.397Z,22.77
2022-12-20T05:53:23.606Z,22.60
2022-12-20T05:55:55.374Z,23.60
2022-12-20T05:58:27.573Z,23.00
2022-12-20T06:03:34.183Z,22.35
2022-12-20T06:06:10.209Z,23.52
2022-12-20T06:08:39.344Z,23.08
2022-12-20T06:11:10.624Z,22.57
2022-12-20T06:13:48.026Z,23.00
2022-12-20T06:16:15.817Z,22.67
2022-12-20T06:18:43.783Z,23.42
2022-12-20T06:21:13.330Z,25.02
2022-12-20T06:23:40.671Z,23.73
2022-12-20T06:26:11.340Z,21.75
2022-12-20T06:28:47.008Z,23.60
2022-12-20T06:31:14.581Z,22.70
2022-12-20T06:33:59.875Z,22.92
2022-12-20T06:36:32.449Z,25.10
2022-12-20T06:39:04.564Z,23.42
2022-12-20T06:41:36.466Z,24.00
2022-12-20T06:44:04.079Z,21.95
2022-12-20T06:46:31.392Z,23.15
2022-12-20T06:48:58.907Z,23.45
2022-12-20T06:51:27.714Z,24.20
2022-12-20T06:53:55.215Z,24.13
2022-12-20T06:56:23.523Z,25.38
2022-12-20T06:58:51.070Z,24.13
2022-12-20T07:01:18.382Z,23.88
2022-12-20T07:03:46.037Z,23.55
2022-12-20T07:06:13.417Z,23.48
2022-12-20T07:08:40.726Z,24.25
2022-12-20T07:11:08.524Z,24.58
2022-12-20T07:13:36.116Z,24.38
2022-12-20T07:16:05.041Z,23.90
2022-12-20T07:18:32.869Z,24.00
2022-12-20T07:21:05.178Z,24.48
2022-12-20T07:23:33.188Z,24.20
2022-12-20T07:26:04.135Z,23.40
2022-12-20T07:28:31.522Z,24.03
2022-12-20T07:31:02.201Z,24.55
2022-12-20T07:33:30.501Z,23.10
2022-12-20T07:36:10.057Z,21.20
2022-12-20T07:38:37.896Z,21.67
2022-12-20T07:41:12.747Z,22.67
2022-12-20T07:43:40.243Z,23.58
2022-12-20T07:46:08.829Z,22.63
2022-12-20T07:48:36.277Z,22.00
2022-12-20T07:51:23.308Z,21.85
2022-12-20T07:54:00.322Z,22.17
2022-12-20T07:56:29.009Z,22.58
2022-12-20T07:58:58.618Z,21.73
2022-12-20T08:01:30.812Z,21.33
2022-12-20T08:04:05.857Z,22.08
2022-12-20T08:06:34.278Z,22.38
2022-12-20T08:09:04.929Z,22.25
2022-12-20T08:11:34.892Z,21.40
2022-12-20T08:14:02.516Z,20.95
2022-12-20T08:16:29.737Z,23.30
2022-12-20T08:18:57.453Z,22.42
2022-12-20T08:21:24.975Z,20.77
2022-12-20T08:23:52.446Z,23.10
2022-12-20T08:26:19.691Z,22.58
2022-12-20T08:28:47.054Z,20.92
2022-12-20T08:31:14.542Z,20.13
2022-12-20T08:33:42.773Z,19.50
2022-12-20T08:36:12.989Z,19.88
2022-12-20T08:38:40.991Z,20.10
2022-12-20T08:41:11.911Z,18.55
2022-12-20T08:43:40.063Z,22.50
2022-12-20T08:46:09.153Z,20.02
2022-12-20T08:48:36.842Z,19.90
2022-12-20T08:51:07.477Z,18.95
2022-12-20T08:53:35.833Z,20.17
2022-12-20T08:56:08.807Z,20.10
2022-12-20T08:58:37.359Z,19.63
2022-12-20T09:01:07.487Z,18.80
2022-12-20T09:03:36.288Z,20.20
2022-12-20T09:06:16.401Z,20.23
2022-12-20T09:08:43.758Z,19.30
2022-12-20T09:11:12.438Z,19.48
2022-12-20T09:13:43.990Z,19.80
2022-12-20T09:16:14.142Z,20.25
2022-12-20T09:18:42.655Z,19.13
2022-12-20T09:21:11.478Z,19.58
2022-12-20T09:23:39.153Z,19.75
2022-12-20T09:26:13.268Z,19.75
2022-12-20T09:28:41.269Z,18.77
2022-12-20T09:31:12.792Z,18.67
2022-12-20T09:33:40.220Z,19.88
2022-12-20T09:36:10.918Z,23.17
2022-12-20T09:38:38.256Z,20.50
2022-12-20T09:41:08.540Z,21.00
2022-12-20T09:43:37.728Z,19.98
2022-12-20T09:46:06.520Z,19.63
2022-12-20T09:48:39.170Z,19.85
2022-12-20T09:51:28.353Z,18.20
2022-12-20T09:54:16.935Z,18.63
2022-12-20T09:56:49.212Z,20.33
2022-12-20T09:59:19.725Z,19.00
2022-12-20T10:01:50.402Z,19.98
2022-12-20T10:04:25.754Z,19.67
2022-12-20T10:07:02.047Z,19.67
2022-12-20T10:09:29.783Z,19.88
2022-12-20T10:12:15.629Z,19.67
2022-12-20T10:15:11.480Z,18.77
2022-12-20T10:17:38.778Z,18.67
2022-12-20T10:20:21.493Z,19.13
2022-12-20T10:23:32.974Z,19.10
2022-12-20T10:26:01.178Z,19.20
2022-12-20T10:28:31.310Z,18.48
2022-12-20T10:31:18.440Z,17.90
2022-12-20T10:33:46.668Z,18.15
2022-12-20T10:36:27.246Z,19.40
2022-12-20T10:38:57.384Z,17.27
2022-12-20T10:41:34.425Z,18.05
2022-12-20T10:44:17.219Z,17.77
2022-12-20T10:46:55.413Z,17.90
2022-12-20T10:49:35.225Z,16.60
2022-12-20T10:52:22.822Z,18.27
2022-12-20T10:54:50.037Z,17.40
2022-12-20T10:57:28.753Z,18.10
2022-12-20T11:00:05.757Z,16.08
2022-12-20T11:02:42.089Z,17.58
2022-12-20T11:05:12.843Z,18.00
2022-12-20T11:10:45.550Z,16.92
2022-12-20T11:13:26.697Z,18.27
2022-12-20T11:16:01.728Z,17.47
2022-12-20T11:18:35.192Z,16.38
2022-12-20T11:21:43.886Z,16.20
2022-12-20T11:24:32.605Z,17.60
2022-12-20T11:27:20.676Z,18.65
2022-12-20T11:29:54.088Z,17.77
2022-12-20T11:33:15.856Z,17.45
2022-12-20T11:35:52.755Z,17.45
2022-12-20T11:38:55.567Z,17.15
2022-12-20T11:41:45.228Z,15.75
2022-12-20T11:44:26.216Z,16.08
2022-12-20T11:47:29.578Z,16.40
2022-12-20T11:50:09.047Z,16.80
2022-12-20T11:52:46.638Z,17.80
2022-12-20T11:55:13.929Z,17.73
2022-12-20T11:58:16.876Z,17.80
2022-12-20T12:00:40.333Z,17.58
2022-12-20T12:03:36.131Z,18.42
2022-12-20T12:06:22.843Z,17.73
2022-12-20T12:09:11.255Z,17.48
2022-12-20T12:14:56.697Z,17.13
2022-12-20T12:17:37.150Z,17.27
2022-12-20T12:20:49.684Z,18.27
2022-12-20T12:23:24.495Z,19.42
2022-12-20T12:25:52.051Z,27.80
2022-12-20T12:28:22.133Z,20.35
2022-12-20T12:31:04.182Z,18.25
2022-12-20T12:33:39.115Z,17.63
2022-12-20T12:36:51.795Z,17.10
2022-12-20T12:39:27.573Z,14.90
2022-12-20T12:42:16.120Z,16.33
2022-12-20T12:45:03.515Z,15.68
2022-12-20T12:47:47.879Z,15.68
2022-12-20T12:50:36.978Z,15.55
2022-12-20T12:53:14.152Z,15.48
2022-12-20T12:55:48.819Z,15.93
2022-12-20T12:58:25.473Z,15.88
2022-12-20T13:00:59.607Z,16.02
2022-12-20T13:03:44.295Z,16.63
2022-12-20T13:06:23.608Z,15.80
2022-12-20T13:09:18.437Z,15.88
2022-12-20T13:11:47.491Z,15.48
2022-12-20T13:14:25.452Z,15.88
2022-12-20T13:17:12.648Z,16.48
2022-12-20T13:19:50.815Z,16.38
2022-12-20T13:22:17.999Z,16.42
2022-12-20T13:25:16.031Z,17.00
2022-12-20T13:27:43.315Z,16.33
2022-12-20T13:30:10.613Z,16.98
2022-12-20T13:32:47.222Z,17.23
2022-12-20T13:35:29.490Z,16.58
2022-12-20T13:38:02.271Z,15.93
2022-12-20T13:40:41.228Z,17.50
2022-12-20T13:43:26.032Z,15.93
2022-12-20T13:46:02.648Z,16.77
2022-12-20T13:48:39.861Z,16.88
2022-12-20T13:51:10.906Z,17.08
2022-12-20T13:53:40.211Z,16.83
2022-12-20T13:56:39.803Z,18.25
2022-12-20T13:59:18.034Z,16.63
2022-12-20T14:01:55.334Z,17.58
2022-12-20T14:04:24.370Z,17.15
2022-12-20T14:06:59.771Z,16.98
2022-12-20T14:09:38.327Z,16.67
2022-12-20T14:12:23.429Z,18.20
2022-12-20T14:14:55.074Z,18.17
2022-12-20T14:17:28.401Z,18.08
2022-12-20T14:20:10.868Z,17.08
2022-12-20T14:22:40.945Z,17.08
2022-12-20T14:25:09.518Z,17.40
2022-12-20T14:27:38.677Z,19.00
2022-12-20T14:30:06.529Z,17.05
2022-12-20T14:32:34.082Z,17.15
2022-12-20T14:35:01.461Z,18.52
2022-12-20T14:37:39.220Z,17.75
2022-12-20T14:40:09.604Z,17.63
2022-12-20T14:42:39.193Z,18.52
2022-12-20T14:45:09.373Z,16.65
2022-12-20T14:47:37.766Z,16.60
2022-12-20T14:50:21.493Z,16.23
2022-12-20T14:52:48.903Z,16.27
2022-12-20T14:55:32.512Z,17.63
2022-12-20T14:58:00.111Z,17.73
2022-12-20T15:00:30.525Z,17.08
2022-12-20T15:03:01.175Z,17.35
2022-12-20T15:05:34.946Z,18.70
2022-12-20T15:08:27.637Z,18.73
2022-12-20T15:11:00.023Z,18.30
2022-12-20T15:13:34.410Z,18.27
2022-12-20T15:16:14.642Z,18.65
2022-12-20T15:18:42.072Z,19.17
2022-12-20T15:21:23.473Z,18.75
2022-12-20T15:23:55.717Z,22.45
2022-12-20T15:26:25.775Z,19.88
2022-12-20T15:28:53.661Z,19.50
2022-12-20T15:31:30.747Z,26.52
2022-12-20T15:34:02.537Z,19.77
2022-12-20T15:36:30.594Z,17.08
2022-12-20T15:39:15.246Z,18.30
2022-12-20T15:41:49.057Z,17.67
2022-12-20T15:44:28.490Z,17.85
2022-12-20T15:46:56.109Z,19.90
2022-12-20T15:49:31.445Z,19.60
2022-12-20T15:51:59.628Z,19.48
2022-12-20T15:54:32.952Z,18.73
2022-12-20T15:57:13.088Z,18.15
2022-12-20T16:02:30.007Z,20.00
2022-12-20T16:04:58.950Z,21.58
2022-12-20T16:07:26.805Z,18.38
2022-12-20T16:09:54.339Z,19.67
2022-12-20T16:12:28.018Z,19.20
2022-12-20T16:14:55.518Z,17.83
2022-12-20T16:17:22.790Z,18.50
2022-12-20T16:19:50.016Z,19.33
2022-12-20T16:22:20.090Z,18.73
2022-12-20T16:24:48.231Z,18.10
2022-12-20T16:27:15.595Z,18.90
2022-12-20T16:29:43.029Z,20.20
2022-12-20T16:32:15.733Z,20.50
2022-12-20T16:34:43.849Z,21.27
2022-12-20T16:37:13.908Z,19.73
2022-12-20T16:39:43.191Z,18.85
2022-12-20T16:42:17.441Z,20.88
2022-12-20T16:44:45.662Z,19.88
2022-12-20T16:47:14.847Z,20.23
2022-12-20T16:49:51.264Z,20.17
2022-12-20T16:52:20.117Z,21.15
2022-12-20T16:54:47.602Z,19.05
2022-12-20T16:57:14.915Z,19.88
2022-12-20T16:59:42.103Z,20.10
2022-12-20T17:02:38.710Z,20.40
2022-12-20T17:05:07.312Z,20.70
2022-12-20T17:07:41.020Z,20.92
2022-12-20T17:10:10.360Z,23.20
2022-12-20T17:12:37.636Z,21.08
2022-12-20T17:15:05.554Z,20.40
2022-12-20T17:17:32.828Z,19.73
2022-12-20T17:20:00.193Z,18.02
2022-12-20T17:25:28.154Z,20.65
2022-12-20T17:27:56.048Z,21.75
2022-12-20T17:30:25.100Z,21.77
2022-12-20T17:32:54.065Z,20.42
2022-12-20T17:35:26.034Z,19.05
2022-12-20T17:40:27.598Z,25.20
2022-12-20T17:42:55.317Z,20.33
2022-12-20T17:45:28.062Z,19.20
2022-12-20T17:47:55.579Z,20.77
2022-12-20T17:50:24.596Z,19.77
2022-12-20T17:52:52.860Z,20.70
2022-12-20T17:55:29.336Z,21.30
2022-12-20T17:57:56.783Z,22.35
2022-12-20T18:00:38.120Z,24.63
2022-12-20T18:03:06.878Z,24.38
2022-12-20T18:05:34.410Z,19.63
2022-12-20T18:08:01.706Z,21.58
2022-12-20T18:10:28.936Z,21.35
2022-12-20T18:12:56.130Z,20.77
2022-12-20T18:15:24.057Z,20.75
2022-12-20T18:17:51.363Z,22.45
2022-12-20T18:20:18.753Z,21.17
2022-12-20T18:22:45.963Z,22.02
2022-12-20T18:25:14.155Z,23.42
2022-12-20T18:27:42.818Z,22.20
2022-12-20T18:30:12.321Z,22.70
2022-12-20T18:32:40.865Z,23.50
2022-12-20T18:35:09.743Z,21.80
2022-12-20T18:37:37.111Z,20.23
2022-12-20T18:40:04.921Z,21.38
2022-12-20T18:42:32.301Z,20.23
2022-12-20T18:44:59.429Z,20.63
2022-12-20T18:47:26.751Z,20.92
2022-12-20T18:49:54.063Z,20.55
2022-12-20T18:52:21.433Z,20.55
2022-12-20T18:54:48.716Z,20.10
2022-12-20T18:57:16.283Z,22.67
2022-12-20T18:59:43.516Z,21.25
2022-12-20T19:02:15.116Z,21.75
2022-12-20T19:04:42.570Z,22.23
2022-12-20T19:07:11.228Z,20.48
2022-12-20T19:09:38.477Z,21.90
2022-12-20T19:12:06.019Z,24.48
2022-12-20T19:14:33.333Z,22.42
2022-12-20T19:17:00.655Z,22.98
2022-12-20T19:19:28.120Z,24.38
2022-12-20T19:21:55.422Z,22.75
2022-12-20T19:24:22.669Z,21.40
2022-12-20T19:26:49.969Z,20.65
2022-12-20T19:29:17.234Z,22.38
2022-12-20T19:31:44.717Z,21.92
2022-12-20T19:34:12.742Z,20.85
2022-12-20T19:36:43.245Z,20.30
2022-12-20T19:39:20.572Z,24.17
2022-12-20T19:42:19.048Z,26.85
2022-12-20T19:44:35.929Z,24.88
2022-12-20T19:47:06.561Z,21.55
2022-12-20T19:49:35.741Z,21.98
2022-12-20T19:52:03.812Z,20.25
2022-12-20T19:54:31.006Z,19.83
2022-12-20T19:56:58.752Z,20.65
2022-12-20T19:59:25.985Z,20.42
2022-12-20T20:01:53.435Z,20.52
2022-12-20T20:04:20.818Z,19.60
2022-12-20T20:06:48.153Z,21.25
2022-12-20T20:09:15.689Z,21.25
2022-12-20T20:11:42.951Z,20.77
2022-12-20T20:14:10.416Z,20.05
2022-12-20T20:16:38.029Z,20.50
2022-12-20T20:19:05.869Z,21.40
2022-12-20T20:21:36.454Z,21.98
2022-12-20T20:24:04.256Z,21.58
2022-12-20T20:26:31.917Z,20.85
2022-12-20T20:29:01.498Z,21.08
2022-12-20T20:31:29.043Z,19.88
2022-12-20T20:33:58.465Z,20.20
2022-12-20T20:36:25.775Z,21.00
2022-12-20T20:38:52.949Z,19.63
2022-12-20T20:41:20.312Z,21.15
2022-12-20T20:43:48.137Z,20.33
2022-12-20T20:46:17.561Z,20.38
2022-12-20T20:48:45.247Z,20.35
2022-12-20T20:51:12.858Z,20.23
2022-12-20T20:53:40.396Z,20.65
2022-12-20T20:56:08.687Z,19.27
2022-12-20T20:58:36.746Z,19.83
2022-12-20T21:01:06.257Z,20.98
2022-12-20T21:03:34.022Z,21.85
2022-12-20T21:08:48.545Z,20.60
2022-12-20T21:11:16.152Z,21.55
2022-12-20T21:13:43.680Z,21.35
2022-12-20T21:16:16.428Z,21.55
2022-12-20T21:18:43.709Z,20.13
2022-12-20T21:21:13.311Z,21.23
2022-12-20T21:23:46.249Z,19.70
2022-12-20T21:26:14.863Z,20.15
2022-12-20T21:28:43.870Z,22.05
2022-12-20T21:31:14.183Z,22.35
2022-12-20T21:33:41.763Z,23.25
2022-12-20T21:36:14.019Z,21.92
2022-12-20T21:38:41.636Z,19.88
2022-12-20T21:41:12.442Z,21.02
2022-12-20T21:43:39.885Z,21.30
2022-12-20T21:46:11.517Z,20.35
2022-12-20T21:51:12.649Z,21.17
2022-12-20T21:53:45.559Z,20.63
2022-12-20T21:56:13.798Z,20.85
2022-12-20T21:58:41.469Z,20.27
2022-12-20T22:01:09.315Z,20.27
2022-12-20T22:03:38.172Z,20.17
2022-12-20T22:06:06.025Z,20.15
2022-12-20T22:08:34.134Z,21.38
2022-12-20T22:11:16.313Z,21.30
2022-12-20T22:16:19.716Z,19.95
2022-12-20T22:18:51.187Z,21.48
2022-12-20T22:21:20.388Z,21.70
2022-12-20T22:23:48.066Z,20.88
2022-12-20T22:26:21.105Z,19.65
2022-12-20T22:28:54.198Z,21.20
2022-12-20T22:31:21.884Z,22.13
2022-12-20T22:33:49.604Z,23.00
2022-12-20T22:36:17.148Z,22.75
2022-12-20T22:38:45.016Z,20.77
2022-12-20T22:41:23.313Z,20.42
2022-12-20T22:43:50.844Z,20.80
2022-12-20T22:46:19.242Z,25.15
2022-12-20T22:48:47.012Z,22.35
2022-12-20T22:51:17.506Z,22.17
2022-12-20T22:53:45.741Z,22.20
2022-12-20T22:56:13.486Z,21.38
2022-12-20T22:58:41.477Z,21.25
2022-12-20T23:01:12.549Z,19.35
2022-12-20T23:03:41.292Z,21.08
2022-12-20T23:06:15.838Z,21.55
2022-12-20T23:08:43.556Z,20.90
2022-12-20T23:11:36.148Z,22.25
2022-12-20T23:14:22.820Z,21.23
2022-12-20T23:16:50.420Z,21.02
2022-12-20T23:19:17.695Z,21.20
2022-12-20T23:22:03.398Z,23.80
2022-12-20T23:24:30.687Z,20.90
2022-12-20T23:26:58.020Z,20.45
2022-12-20T23:29:25.593Z,21.40
2022-12-20T23:31:53.026Z,20.48
2022-12-20T23:34:20.547Z,21.25
2022-12-20T23:36:48.078Z,21.23
2022-12-20T23:39:16.252Z,20.90
2022-12-20T23:41:43.519Z,21.40
2022-12-20T23:44:10.843Z,21.15
2022-12-20T23:46:38.427Z,22.60
2022-12-20T23:49:06.181Z,20.85
2022-12-20T23:51:34.738Z,21.35
2022-12-20T23:54:02.037Z,20.55
2022-12-20T23:56:29.354Z,20.70
2022-12-20T23:58:57.849Z,20.92
